createdAt,value
2023-02-09T00:00:13.292Z,11.98
2023-02-09T00:05:04.083Z,12.35
2023-02-09T00:09:55.334Z,11.63
2023-02-09T00:14:49.490Z,11.85
2023-02-09T00:19:52.503Z,11.05
2023-02-09T00:24:46.626Z,12.40
2023-02-09T00:29:41.191Z,12.88
2023-02-09T00:34:34.004Z,12.18
2023-02-09T00:39:28.468Z,14.18
2023-02-09T00:44:22.136Z,13.20
2023-02-09T00:49:19.863Z,12.57
2023-02-09T00:54:11.103Z,13.98
2023-02-09T00:59:07.175Z,11.60
2023-02-09T01:04:00.906Z,12.75
2023-02-09T01:08:54.113Z,13.07
2023-02-09T01:13:48.079Z,12.90
2023-02-09T01:18:50.383Z,13.20
2023-02-09T01:23:43.023Z,12.38
2023-02-09T01:28:34.224Z,11.97
2023-02-09T01:33:27.373Z,11.23
2023-02-09T01:38:24.389Z,14.20
2023-02-09T01:43:15.101Z,12.02
2023-02-09T01:48:07.004Z,12.07
2023-02-09T01:52:58.902Z,12.03
2023-02-09T01:58:00.114Z,11.02
2023-02-09T02:02:57.771Z,11.60
2023-02-09T02:07:59.264Z,12.55
2023-02-09T02:12:56.517Z,12.35
2023-02-09T02:18:17.459Z,11.67
2023-02-09T02:23:25.202Z,11.48
2023-02-09T02:28:37.662Z,12.77
2023-02-09T02:33:42.738Z,12.05
2023-02-09T02:38:43.518Z,11.05
2023-02-09T02:43:43.951Z,11.38
2023-02-09T02:48:46.507Z,10.97
2023-02-09T02:53:46.156Z,11.70
2023-02-09T02:58:45.545Z,11.95
2023-02-09T03:03:43.268Z,13.07
2023-02-09T03:08:49.442Z,12.57
2023-02-09T03:13:51.615Z,11.38
2023-02-09T03:19:24.047Z,13.53
2023-02-09T03:24:41.096Z,12.63
2023-02-09T03:29:38.947Z,13.45
2023-02-09T03:34:34.580Z,11.70
2023-02-09T03:39:27.576Z,12.90
2023-02-09T03:44:34.953Z,10.77
2023-02-09T03:49:26.920Z,12.57
2023-02-09T03:54:21.316Z,9.77
2023-02-09T03:59:13.248Z,10.98
2023-02-09T04:04:09.398Z,9.23
2023-02-09T04:09:03.662Z,9.15
2023-02-09T04:14:01.894Z,10.67
2023-02-09T04:18:57.584Z,10.70
2023-02-09T04:23:49.311Z,9.48
2023-02-09T04:28:41.106Z,8.57
2023-02-09T04:33:38.304Z,9.93
2023-02-09T04:38:30.875Z,9.27
2023-02-09T04:43:22.217Z,7.37
2023-02-09T04:48:18.899Z,11.27
2023-02-09T04:53:13.293Z,7.90
2023-02-09T04:58:17.263Z,9.32
2023-02-09T05:03:15.100Z,9.90
2023-02-09T05:08:07.074Z,9.17
2023-02-09T05:13:01.025Z,10.07
2023-02-09T05:17:52.630Z,8.82
2023-02-09T05:22:45.831Z,8.77
2023-02-09T05:27:37.700Z,9.80
2023-02-09T05:32:37.410Z,9.35
2023-02-09T05:37:28.882Z,10.55
2023-02-09T05:42:21.369Z,8.90
2023-02-09T05:47:14.482Z,8.90
2023-02-09T05:52:11.628Z,10.53
2023-02-09T05:57:01.359Z,9.05
2023-02-09T06:01:51.092Z,9.85
2023-02-09T06:06:41.868Z,9.50
2023-02-09T06:11:40.678Z,11.70
2023-02-09T06:16:38.745Z,11.35
2023-02-09T06:21:35.204Z,10.07
2023-02-09T06:26:29.550Z,10.00
2023-02-09T06:31:27.096Z,10.00
2023-02-09T06:36:17.969Z,10.98
2023-02-09T06:41:10.435Z,11.50
2023-02-09T06:46:05.259Z,10.85
2023-02-09T06:50:58.620Z,10.23
2023-02-09T06:55:51.700Z,10.93
2023-02-09T07:00:44.381Z,11.53
2023-02-09T07:05:34.730Z,11.98
2023-02-09T07:10:30.795Z,11.40
2023-02-09T07:15:26.586Z,13.93
2023-02-09T07:20:18.843Z,12.13
2023-02-09T07:25:11.664Z,12.20
2023-02-09T07:30:08.179Z,11.20
2023-02-09T07:34:58.509Z,12.93
2023-02-09T07:39:51.591Z,12.02
2023-02-09T07:44:43.613Z,12.88
2023-02-09T07:49:39.642Z,13.87
2023-02-09T07:54:34.275Z,10.50
2023-02-09T07:59:25.522Z,13.93
2023-02-09T08:04:19.467Z,12.05
2023-02-09T08:09:14.667Z,11.30
2023-02-09T08:14:10.215Z,11.38
2023-02-09T08:19:05.978Z,11.55
2023-02-09T08:24:00.150Z,10.80
2023-02-09T08:28:54.589Z,13.23
2023-02-09T08:33:44.784Z,12.88
2023-02-09T08:38:34.567Z,14.77
2023-02-09T08:43:24.894Z,12.93
2023-02-09T08:48:17.686Z,13.98
2023-02-09T08:53:09.899Z,14.93
2023-02-09T08:58:05.883Z,12.65
2023-02-09T09:02:57.484Z,12.38
2023-02-09T09:08:05.423Z,11.70
2023-02-09T09:12:57.697Z,15.35
2023-02-09T09:17:49.729Z,12.47
2023-02-09T09:22:48.365Z,11.63
2023-02-09T09:27:44.137Z,11.98
2023-02-09T09:32:35.174Z,12.45
2023-02-09T09:37:27.493Z,12.57
2023-02-09T09:42:26.851Z,11.27
2023-02-09T09:47:25.119Z,11.70
2023-02-09T09:52:24.292Z,13.25
2023-02-09T09:57:21.743Z,13.27
2023-02-09T10:02:26.802Z,13.05
2023-02-09T10:07:25.550Z,13.15
2023-02-09T10:12:35.657Z,13.53
2023-02-09T10:17:31.738Z,12.35
2023-02-09T10:22:24.276Z,14.10
2023-02-09T10:27:20.327Z,13.20
2023-02-09T10:32:19.441Z,13.52
2023-02-09T10:37:24.558Z,13.82
2023-02-09T10:42:24.894Z,13.60
2023-02-09T10:47:30.782Z,16.63
2023-02-09T10:52:26.033Z,14.45
2023-02-09T10:57:27.282Z,14.13
2023-02-09T11:02:38.536Z,17.58
2023-02-09T11:07:42.061Z,17.55
2023-02-09T11:12:33.050Z,16.60
2023-02-09T11:17:29.475Z,18.85
2023-02-09T11:22:29.517Z,19.05
2023-02-09T11:27:38.924Z,17.05
2023-02-09T11:32:39.957Z,18.88
2023-02-09T11:37:43.160Z,18.25
2023-02-09T11:42:51.856Z,17.92
2023-02-09T11:47:56.184Z,18.50
2023-02-09T11:52:56.135Z,19.40
2023-02-09T11:57:57.912Z,17.00
2023-02-09T12:02:58.263Z,17.47
2023-02-09T12:08:10.977Z,18.65
2023-02-09T12:13:29.421Z,20.03
2023-02-09T12:18:24.334Z,22.95
2023-02-09T12:23:21.735Z,21.43
2023-02-09T12:28:42.826Z,20.75
2023-02-09T12:33:40.739Z,22.90
2023-02-09T12:38:55.940Z,23.70
2023-02-09T12:43:55.643Z,22.08
2023-02-09T12:48:54.312Z,21.98
2023-02-09T12:53:54.472Z,21.50
2023-02-09T12:59:18.557Z,22.38
2023-02-09T13:04:16.606Z,21.63
2023-02-09T13:09:13.407Z,24.53
2023-02-09T13:14:10.165Z,24.83
2023-02-09T13:19:20.877Z,24.45
2023-02-09T13:24:18.860Z,21.25
2023-02-09T13:29:20.253Z,25.92
2023-02-09T13:34:26.407Z,24.55
2023-02-09T13:39:27.304Z,25.40
2023-02-09T13:44:26.345Z,25.77
2023-02-09T13:49:24.313Z,23.65
2023-02-09T13:54:42.944Z,26.73
2023-02-09T13:59:34.259Z,23.75
2023-02-09T14:04:28.914Z,27.83
2023-02-09T14:09:27.343Z,24.83
2023-02-09T14:14:23.998Z,26.83
2023-02-09T14:19:29.502Z,25.17
2023-02-09T14:24:25.872Z,29.10
2023-02-09T14:29:20.532Z,27.75
2023-02-09T14:34:26.641Z,31.33
2023-02-09T14:39:21.636Z,27.37
2023-02-09T14:44:25.257Z,30.23
2023-02-09T14:49:17.455Z,29.48
2023-02-09T14:54:16.753Z,29.57
2023-02-09T14:59:13.756Z,30.20
2023-02-09T15:04:16.054Z,29.08
2023-02-09T15:09:07.551Z,30.52
2023-02-09T15:14:04.042Z,31.00
2023-02-09T15:18:55.539Z,34.28
2023-02-09T15:23:48.051Z,29.20
2023-02-09T15:28:42.052Z,28.67
2023-02-09T15:33:41.627Z,29.20
2023-02-09T15:38:32.815Z,32.60
2023-02-09T15:43:47.710Z,29.70
2023-02-09T15:48:39.040Z,30.80
2023-02-09T15:53:31.232Z,32.72
2023-02-09T15:58:35.346Z,34.28
2023-02-09T16:03:29.530Z,29.50
2023-02-09T16:08:25.564Z,33.58
2023-02-09T16:13:17.838Z,32.83
2023-02-09T16:18:14.478Z,32.23
2023-02-09T16:23:20.241Z,35.63
2023-02-09T16:28:16.515Z,33.40
2023-02-09T16:33:07.391Z,37.03
2023-02-09T16:38:01.532Z,36.60
2023-02-09T16:42:55.707Z,35.53
2023-02-09T16:47:51.163Z,35.00
2023-02-09T16:52:46.272Z,34.63
2023-02-09T16:57:42.179Z,37.00
2023-02-09T17:02:47.102Z,36.92
2023-02-09T17:07:53.974Z,35.85
2023-02-09T17:12:49.089Z,36.60
2023-02-09T17:17:40.254Z,37.58
2023-02-09T17:22:31.842Z,36.83
2023-02-09T17:27:23.450Z,36.83
2023-02-09T17:32:21.080Z,37.47
2023-02-09T17:37:16.980Z,36.87
2023-02-09T17:42:08.347Z,38.05
2023-02-09T17:47:00.595Z,41.23
2023-02-09T17:51:57.014Z,40.77
2023-02-09T17:56:48.723Z,41.75
2023-02-09T18:01:45.491Z,42.72
2023-02-09T18:06:43.136Z,45.47
2023-02-09T18:12:05.776Z,45.00
2023-02-09T18:16:58.325Z,46.23
2023-02-09T18:21:53.452Z,48.40
2023-02-09T18:26:43.410Z,44.75
2023-02-09T18:31:37.856Z,45.38
2023-02-09T18:36:29.076Z,50.88
2023-02-09T18:41:29.887Z,46.42
2023-02-09T18:46:22.206Z,50.92
2023-02-09T18:51:18.408Z,47.13
2023-02-09T18:56:18.688Z,50.70
2023-02-09T19:01:14.481Z,59.65
2023-02-09T19:06:10.593Z,56.77
2023-02-09T19:11:05.759Z,55.57
2023-02-09T19:15:59.119Z,55.90
2023-02-09T19:21:00.120Z,56.72
2023-02-09T19:25:53.429Z,63.15
2023-02-09T19:30:50.609Z,64.15
2023-02-09T19:35:44.073Z,60.40
2023-02-09T19:40:41.902Z,64.07
2023-02-09T19:45:36.665Z,84.97
2023-02-09T19:50:29.186Z,64.35
2023-02-09T19:55:20.732Z,76.68
2023-02-09T20:00:18.369Z,86.45
2023-02-09T20:05:10.455Z,86.20
2023-02-09T20:10:09.791Z,76.18
2023-02-09T20:15:02.543Z,83.72
2023-02-09T20:19:52.768Z,70.82
2023-02-09T20:24:49.054Z,66.55
2023-02-09T20:29:47.608Z,65.78
2023-02-09T20:34:42.563Z,69.07
2023-02-09T20:39:32.685Z,80.00
2023-02-09T20:44:34.884Z,65.10
2023-02-09T20:49:31.331Z,58.00
2023-02-09T20:54:27.231Z,85.40
2023-02-09T20:59:36.531Z,75.63
2023-02-09T21:04:35.155Z,64.95
2023-02-09T21:09:31.450Z,60.53
2023-02-09T21:14:27.939Z,59.17
2023-02-09T21:19:27.344Z,56.35
2023-02-09T21:24:24.445Z,53.83
2023-02-09T21:29:20.159Z,56.90
2023-02-09T21:34:13.758Z,51.63
2023-02-09T21:39:05.679Z,52.88
2023-02-09T21:44:04.855Z,50.85
2023-02-09T21:48:56.084Z,51.55
2023-02-09T21:53:50.295Z,54.88
2023-02-09T21:58:41.693Z,52.17
2023-02-09T22:03:38.092Z,50.10
2023-02-09T22:08:31.219Z,51.97
2023-02-09T22:13:26.156Z,53.05
2023-02-09T22:18:18.421Z,42.70
2023-02-09T22:23:13.375Z,39.97
2023-02-09T22:28:05.204Z,48.95
2023-02-09T22:32:58.949Z,46.17
2023-02-09T22:37:52.507Z,46.83
2023-02-09T22:42:46.226Z,45.97
2023-02-09T22:47:40.166Z,47.70
2023-02-09T22:52:39.750Z,47.08
2023-02-09T22:57:33.194Z,42.78
2023-02-09T23:02:27.656Z,41.38
2023-02-09T23:07:19.140Z,43.67
2023-02-09T23:12:16.534Z,46.50
2023-02-09T23:17:07.890Z,41.17
2023-02-09T23:22:01.589Z,37.85
2023-02-09T23:26:53.277Z,38.25
2023-02-09T23:31:44.913Z,37.40
2023-02-09T23:36:36.673Z,39.83
2023-02-09T23:41:30.034Z,36.22
2023-02-09T23:46:23.494Z,37.77
2023-02-09T23:51:25.482Z,34.47
2023-02-09T23:56:20.310Z,34.45
